Time;durP1;ratioP1;P1;durP2;ratioP2;P2;SDS_P1;SDS_P2;PMS_P1;PMS_P2;Temp;Humidity;BMP_temperature;BMP_pressure;BME280_temperature;BME280_humidity;BME280_pressure;Samples;Min_cycle;Max_cycle;Signal;HPM_P1;HPM_P2
2022/10/16 00:02:06;;;;;;;5.15;1.73;;;;;;;;;;5046716;27;89354;-67
2022/10/16 00:04:33;;;;;;;2.58;1.38;;;;;;;;;;5040705;27;88036;-66
2022/10/16 00:06:59;;;;;;;4.45;1.40;;;;;;;;;;5041369;27;88682;-66
2022/10/16 00:09:25;;;;;;;6.50;1.52;;;;;;;;;;5046634;27;88312;-67
2022/10/16 00:11:51;;;;;;;4.80;1.92;;;;;;;;;;5058649;27;88008;-68
2022/10/16 00:14:18;;;;;;;3.13;1.42;;;;;;;;;;5056017;27;88218;-66
2022/10/16 00:16:44;;;;;;;4.15;1.40;;;;;;;;;;5047178;27;88840;-67
2022/10/16 00:19:11;;;;;;;3.72;1.45;;;;;;;;;;5038835;27;90560;-67
2022/10/16 00:21:38;;;;;;;3.78;1.70;;;;;;;;;;5054191;27;89143;-67
2022/10/16 00:24:08;;;;;;;2.88;1.45;;;;;;;;;;5042808;27;89011;-67
2022/10/16 00:26:35;;;;;;;5.10;1.40;;;;;;;;;;5046567;27;88665;-67
2022/10/16 00:29:02;;;;;;;2.95;1.33;;;;;;;;;;5052307;27;88969;-68
2022/10/16 00:31:29;;;;;;;2.88;1.30;;;;;;;;;;5033002;28;88244;-67
2022/10/16 00:33:55;;;;;;;3.92;1.77;;;;;;;;;;5050933;27;89720;-67
2022/10/16 00:36:22;;;;;;;2.35;1.30;;;;;;;;;;5049629;27;88985;-67
2022/10/16 00:38:54;;;;;;;2.22;1.38;;;;;;;;;;5055369;27;88810;-68
2022/10/16 00:41:21;;;;;;;2.13;1.30;;;;;;;;;;5038837;27;88886;-67
2022/10/16 00:43:49;;;;;;;2.53;1.60;;;;;;;;;;5038960;27;88918;-67
2022/10/16 00:46:33;;;;;;;2.97;1.30;;;;;;;;;;5044380;27;88767;-67
2022/10/16 00:49:00;;;;;;;3.58;1.48;;;;;;;;;;5039534;27;92204;-67
2022/10/16 00:51:33;;;;;;;3.00;1.30;;;;;;;;;;5038836;27;88071;-67
2022/10/16 00:54:01;;;;;;;5.28;1.40;;;;;;;;;;5038783;27;88723;-67
2022/10/16 00:56:28;;;;;;;4.13;1.67;;;;;;;;;;5058800;27;89339;-68
2022/10/16 00:58:54;;;;;;;4.32;1.60;;;;;;;;;;5040735;27;87901;-67
2022/10/16 01:01:20;;;;;;;2.55;1.58;;;;;;;;;;5054425;27;89017;-68
2022/10/16 01:03:47;;;;;;;2.85;1.35;;;;;;;;;;5031997;27;88093;-68
2022/10/16 01:06:23;;;;;;;3.47;1.40;;;;;;;;;;5043821;27;88725;-67
2022/10/16 01:09:11;;;;;;;2.97;1.45;;;;;;;;;;5039065;27;88874;-67
2022/10/16 01:12:00;;;;;;;3.33;1.58;;;;;;;;;;5058096;27;88062;-67
2022/10/16 01:14:32;;;;;;;4.47;1.75;;;;;;;;;;5033437;28;88699;-68
2022/10/16 01:17:01;;;;;;;4.90;1.38;;;;;;;;;;5054264;27;89606;-66
2022/10/16 01:19:38;;;;;;;5.18;1.77;;;;;;;;;;5058202;27;87899;-66
2022/10/16 01:22:05;;;;;;;2.65;1.55;;;;;;;;;;5061359;27;88786;-67
2022/10/16 01:24:39;;;;;;;2.70;1.42;;;;;;;;;;5034370;28;87816;-67
2022/10/16 01:27:18;;;;;;;1.58;1.20;;;;;;;;;;5037962;27;88479;-67
2022/10/16 01:29:53;;;;;;;2.80;1.48;;;;;;;;;;5041125;27;89074;-67
2022/10/16 01:32:39;;;;;;;4.38;1.70;;;;;;;;;;5020609;28;88796;-67
2022/10/16 01:35:15;;;;;;;6.90;1.88;;;;;;;;;;5036925;27;89547;-68
2022/10/16 01:37:46;;;;;;;5.55;1.77;;;;;;;;;;5031375;28;89288;-68
2022/10/16 01:40:14;;;;;;;2.08;1.30;;;;;;;;;;5024034;28;89675;-68
2022/10/16 01:42:42;;;;;;;5.72;1.80;;;;;;;;;;5049910;27;88636;-68
2022/10/16 01:45:11;;;;;;;5.22;1.70;;;;;;;;;;5047293;27;89411;-67
2022/10/16 01:47:37;;;;;;;2.03;1.30;;;;;;;;;;5058265;27;88803;-67
2022/10/16 01:50:04;;;;;;;5.00;1.90;;;;;;;;;;5032623;28;88303;-67
2022/10/16 01:52:32;;;;;;;6.63;1.45;;;;;;;;;;5045704;27;88048;-67
2022/10/16 01:54:59;;;;;;;3.03;1.40;;;;;;;;;;5026655;28;88654;-67
2022/10/16 01:57:26;;;;;;;5.75;1.85;;;;;;;;;;5037581;27;89745;-67
2022/10/16 01:59:54;;;;;;;3.05;1.90;;;;;;;;;;5042686;27;88060;-67
2022/10/16 02:02:21;;;;;;;2.33;1.35;;;;;;;;;;5057079;27;88793;-67
2022/10/16 02:04:50;;;;;;;1.88;1.55;;;;;;;;;;5053323;27;89053;-66
2022/10/16 02:07:16;;;;;;;2.13;1.35;;;;;;;;;;5043919;27;89057;-66
2022/10/16 02:09:42;;;;;;;4.93;1.80;;;;;;;;;;5056176;27;89676;-66
2022/10/16 02:12:20;;;;;;;2.40;1.50;;;;;;;;;;5034544;27;87995;-67
2022/10/16 02:14:46;;;;;;;5.40;1.65;;;;;;;;;;5040197;27;88685;-66
2022/10/16 02:17:14;;;;;;;3.05;1.55;;;;;;;;;;5057931;27;89085;-66
2022/10/16 02:19:41;;;;;;;2.65;1.60;;;;;;;;;;5050045;27;88205;-66
2022/10/16 02:22:09;;;;;;;3.67;1.45;;;;;;;;;;5037841;28;89829;-67
2022/10/16 02:24:41;;;;;;;2.13;1.58;;;;;;;;;;5023517;27;89027;-67
2022/10/16 02:27:19;;;;;;;2.42;1.17;;;;;;;;;;5057012;27;88059;-66
2022/10/16 02:29:50;;;;;;;2.58;1.58;;;;;;;;;;5029193;28;89011;-66
2022/10/16 02:32:19;;;;;;;3.20;1.50;;;;;;;;;;5038037;27;89240;-66
2022/10/16 02:34:47;;;;;;;2.60;1.20;;;;;;;;;;5035964;27;88632;-66
2022/10/16 02:37:14;;;;;;;2.55;1.42;;;;;;;;;;5019391;27;89217;-66
2022/10/16 02:39:40;;;;;;;3.05;1.60;;;;;;;;;;5056868;27;87947;-67
2022/10/16 02:42:11;;;;;;;2.28;1.30;;;;;;;;;;5038964;27;88296;-67
2022/10/16 02:44:37;;;;;;;8.38;2.05;;;;;;;;;;5050678;27;88923;-67
2022/10/16 02:47:04;;;;;;;1.95;1.40;;;;;;;;;;5054338;27;88807;-67
2022/10/16 02:49:30;;;;;;;3.10;1.70;;;;;;;;;;5045690;27;89708;-67
2022/10/16 02:51:56;;;;;;;2.55;1.45;;;;;;;;;;5053418;27;87937;-67
2022/10/16 02:54:23;;;;;;;3.15;1.60;;;;;;;;;;5041892;27;89104;-67
2022/10/16 02:56:49;;;;;;;2.13;1.45;;;;;;;;;;5045749;27;89013;-67
2022/10/16 02:59:16;;;;;;;4.70;1.80;;;;;;;;;;5054521;27;89460;-66
2022/10/16 03:01:42;;;;;;;4.40;1.80;;;;;;;;;;5036457;27;88662;-67
2022/10/16 03:04:08;;;;;;;3.80;1.48;;;;;;;;;;5057074;27;88172;-66
2022/10/16 03:06:35;;;;;;;3.40;1.58;;;;;;;;;;5040966;27;88242;-65
2022/10/16 03:09:02;;;;;;;2.33;1.63;;;;;;;;;;5039186;27;88935;-66
2022/10/16 03:11:28;;;;;;;1.40;1.30;;;;;;;;;;5056338;27;89791;-65
2022/10/16 03:13:54;;;;;;;2.17;1.42;;;;;;;;;;5023924;27;92873;-65
2022/10/16 03:16:20;;;;;;;4.80;1.45;;;;;;;;;;5039769;27;89641;-67
2022/10/16 03:18:49;;;;;;;3.00;1.45;;;;;;;;;;5051327;27;88181;-67
2022/10/16 03:21:16;;;;;;;4.82;1.50;;;;;;;;;;5040571;27;88855;-66
2022/10/16 03:23:42;;;;;;;1.90;1.50;;;;;;;;;;5043463;27;90495;-67
2022/10/16 03:26:09;;;;;;;2.28;1.60;;;;;;;;;;5058160;27;88129;-65
2022/10/16 03:28:35;;;;;;;4.55;1.90;;;;;;;;;;5055111;27;88626;-66
2022/10/16 03:31:01;;;;;;;1.58;1.48;;;;;;;;;;5059906;27;89095;-66
2022/10/16 03:33:27;;;;;;;2.60;1.50;;;;;;;;;;5040066;27;89280;-66
2022/10/16 03:35:54;;;;;;;2.63;1.50;;;;;;;;;;5037499;27;90486;-66
2022/10/16 03:38:20;;;;;;;5.57;1.40;;;;;;;;;;5052056;27;88110;-67
2022/10/16 03:40:47;;;;;;;3.42;1.45;;;;;;;;;;5057799;27;89047;-67
2022/10/16 03:43:13;;;;;;;5.05;1.77;;;;;;;;;;5041018;27;89009;-65
2022/10/16 03:45:40;;;;;;;5.40;1.80;;;;;;;;;;5049031;27;88155;-65
2022/10/16 03:48:06;;;;;;;6.53;1.77;;;;;;;;;;5046899;27;88793;-65
2022/10/16 03:50:33;;;;;;;2.13;1.45;;;;;;;;;;5058408;27;88986;-65
2022/10/16 03:52:59;;;;;;;1.77;1.42;;;;;;;;;;5051913;27;88914;-65
2022/10/16 03:55:25;;;;;;;13.25;1.60;;;;;;;;;;5053724;27;88026;-66
2022/10/16 03:57:51;;;;;;;4.60;1.63;;;;;;;;;;5043699;27;88121;-66
2022/10/16 04:00:17;;;;;;;1.80;1.40;;;;;;;;;;5057312;27;88758;-66
2022/10/16 04:02:44;;;;;;;1.90;1.40;;;;;;;;;;5058881;27;88978;-67
2022/10/16 04:05:15;;;;;;;2.47;1.63;;;;;;;;;;5048047;27;88064;-66
2022/10/16 04:07:41;;;;;;;1.52;1.20;;;;;;;;;;5045267;27;89108;-66
2022/10/16 04:10:07;;;;;;;2.83;1.40;;;;;;;;;;5044461;27;90563;-67
2022/10/16 04:12:34;;;;;;;1.30;1.20;;;;;;;;;;5041547;27;88315;-66
2022/10/16 04:15:00;;;;;;;8.77;1.45;;;;;;;;;;5037107;27;88823;-66
2022/10/16 04:17:26;;;;;;;2.03;1.48;;;;;;;;;;5054300;27;87826;-67
2022/10/16 04:19:53;;;;;;;2.00;1.45;;;;;;;;;;5049918;27;89080;-66
2022/10/16 04:22:19;;;;;;;1.90;1.33;;;;;;;;;;5043817;27;89033;-66
2022/10/16 04:24:46;;;;;;;5.13;1.52;;;;;;;;;;5044206;27;88868;-67
2022/10/16 04:27:12;;;;;;;2.08;1.58;;;;;;;;;;5043034;27;90563;-67
2022/10/16 04:29:38;;;;;;;3.15;1.50;;;;;;;;;;5044372;27;89060;-68
2022/10/16 04:32:04;;;;;;;7.47;1.23;;;;;;;;;;5038874;27;88282;-67
2022/10/16 04:34:31;;;;;;;5.57;1.27;;;;;;;;;;5058907;27;88730;-67
2022/10/16 04:36:57;;;;;;;2.13;1.55;;;;;;;;;;5060763;27;89331;-67
2022/10/16 04:39:23;;;;;;;2.70;1.17;;;;;;;;;;5021155;28;88839;-66
2022/10/16 04:41:49;;;;;;;2.13;1.52;;;;;;;;;;5048905;27;88276;-66
2022/10/16 04:44:16;;;;;;;2.95;1.33;;;;;;;;;;5042859;27;88245;-65
2022/10/16 04:46:42;;;;;;;3.38;1.40;;;;;;;;;;5053067;27;88702;-65
2022/10/16 04:49:08;;;;;;;6.57;1.42;;;;;;;;;;5059059;27;89765;-66
2022/10/16 04:51:34;;;;;;;5.15;1.50;;;;;;;;;;5042140;27;88159;-67
2022/10/16 04:54:01;;;;;;;5.18;1.52;;;;;;;;;;5041707;27;88917;-66
2022/10/16 04:56:27;;;;;;;3.40;1.17;;;;;;;;;;5057306;27;89035;-68
2022/10/16 04:58:53;;;;;;;7.68;1.50;;;;;;;;;;5050124;27;88423;-68
2022/10/16 05:01:19;;;;;;;3.65;1.10;;;;;;;;;;5048513;27;89044;-67
2022/10/16 05:03:46;;;;;;;1.55;1.20;;;;;;;;;;5036330;27;88134;-68
2022/10/16 05:06:12;;;;;;;4.03;1.35;;;;;;;;;;5059091;27;89833;-68
2022/10/16 05:08:38;;;;;;;4.05;1.23;;;;;;;;;;5057384;27;89013;-67
2022/10/16 05:11:04;;;;;;;6.97;1.58;;;;;;;;;;5057469;27;88039;-66
2022/10/16 05:13:31;;;;;;;6.40;2.10;;;;;;;;;;5056300;27;89724;-67
2022/10/16 05:15:57;;;;;;;7.10;1.25;;;;;;;;;;5056324;27;90313;-66
2022/10/16 05:18:23;;;;;;;5.32;1.23;;;;;;;;;;5059489;27;88066;-66
2022/10/16 05:20:49;;;;;;;4.70;1.38;;;;;;;;;;5055338;27;88772;-65
2022/10/16 05:23:16;;;;;;;14.20;1.33;;;;;;;;;;5057294;27;88904;-67
2022/10/16 05:25:42;;;;;;;4.35;1.40;;;;;;;;;;5026789;27;89217;-66
2022/10/16 05:28:08;;;;;;;4.80;1.40;;;;;;;;;;5049927;27;89702;-66
2022/10/16 05:30:36;;;;;;;15.35;1.67;;;;;;;;;;5044570;27;88174;-66
2022/10/16 05:33:03;;;;;;;4.72;1.38;;;;;;;;;;5051067;27;88081;-65
2022/10/16 05:35:29;;;;;;;5.75;1.50;;;;;;;;;;5023629;28;89009;-65
2022/10/16 05:37:55;;;;;;;8.68;1.80;;;;;;;;;;5047340;27;88931;-66
2022/10/16 05:40:21;;;;;;;2.67;1.30;;;;;;;;;;5037361;27;89431;-65
2022/10/16 05:42:48;;;;;;;5.28;1.50;;;;;;;;;;5050741;27;89023;-66
2022/10/16 05:45:14;;;;;;;5.20;1.20;;;;;;;;;;5025539;27;88795;-66
2022/10/16 05:47:40;;;;;;;2.25;1.02;;;;;;;;;;5040806;27;89370;-66
2022/10/16 05:50:07;;;;;;;2.10;0.95;;;;;;;;;;5054602;27;88231;-67
2022/10/16 05:52:33;;;;;;;2.92;1.20;;;;;;;;;;5041427;27;89104;-66
2022/10/16 05:54:59;;;;;;;2.92;1.40;;;;;;;;;;5033834;28;88286;-66
2022/10/16 05:57:26;;;;;;;2.88;1.10;;;;;;;;;;5023803;27;88044;-66
2022/10/16 05:59:52;;;;;;;3.20;1.25;;;;;;;;;;5041797;27;88848;-67
2022/10/16 06:02:18;;;;;;;3.75;1.20;;;;;;;;;;5038782;27;90805;-66
2022/10/16 06:04:45;;;;;;;2.65;1.30;;;;;;;;;;5041208;27;87947;-66
2022/10/16 06:07:11;;;;;;;2.75;1.20;;;;;;;;;;5038432;27;89016;-66
2022/10/16 06:09:37;;;;;;;5.78;1.38;;;;;;;;;;5024697;27;88981;-67
2022/10/16 06:12:03;;;;;;;2.90;1.08;;;;;;;;;;5058561;27;88731;-66
2022/10/16 06:14:30;;;;;;;8.18;1.02;;;;;;;;;;5056111;27;89538;-65
2022/10/16 06:16:56;;;;;;;12.90;1.50;;;;;;;;;;5054911;27;88036;-64
2022/10/16 06:19:22;;;;;;;2.67;1.23;;;;;;;;;;5053547;27;89883;-64
2022/10/16 06:21:49;;;;;;;7.35;1.00;;;;;;;;;;5019994;28;89025;-64
2022/10/16 06:24:15;;;;;;;9.43;1.52;;;;;;;;;;5050850;27;88057;-64
2022/10/16 06:26:41;;;;;;;1.38;0.75;;;;;;;;;;5057750;27;89737;-64
2022/10/16 06:29:07;;;;;;;4.13;1.13;;;;;;;;;;5055445;27;88135;-65
2022/10/16 06:31:34;;;;;;;1.38;0.90;;;;;;;;;;5050615;27;88813;-66
2022/10/16 06:34:00;;;;;;;1.60;1.00;;;;;;;;;;5046467;27;88941;-66
2022/10/16 06:36:27;;;;;;;9.70;1.15;;;;;;;;;;5044495;27;88213;-66
2022/10/16 06:38:53;;;;;;;4.25;1.20;;;;;;;;;;5039395;27;88762;-66
2022/10/16 06:41:20;;;;;;;5.32;1.55;;;;;;;;;;5024151;28;89296;-66
2022/10/16 06:43:47;;;;;;;2.53;1.20;;;;;;;;;;5035496;27;90565;-66
2022/10/16 06:46:15;;;;;;;5.93;1.05;;;;;;;;;;5054763;27;88415;-66
2022/10/16 06:48:41;;;;;;;2.10;1.10;;;;;;;;;;5052650;27;88154;-65
2022/10/16 06:51:10;;;;;;;2.15;0.90;;;;;;;;;;5038632;27;88862;-66
2022/10/16 06:53:38;;;;;;;1.33;0.93;;;;;;;;;;5043888;27;89355;-66
2022/10/16 06:56:26;;;;;;;2.08;1.02;;;;;;;;;;5047223;27;89258;-66
2022/10/16 06:58:53;;;;;;;4.32;1.20;;;;;;;;;;5039539;27;89005;-66
2022/10/16 07:01:20;;;;;;;2.20;1.10;;;;;;;;;;5021386;27;89054;-66
2022/10/16 07:03:47;;;;;;;7.72;1.15;;;;;;;;;;5042364;27;88197;-66
2022/10/16 07:06:14;;;;;;;1.42;0.90;;;;;;;;;;5037737;27;88427;-66
2022/10/16 07:08:41;;;;;;;2.13;1.10;;;;;;;;;;5056080;27;89274;-66
2022/10/16 07:11:09;;;;;;;2.25;1.13;;;;;;;;;;5056490;27;89352;-66
2022/10/16 07:13:36;;;;;;;4.03;1.20;;;;;;;;;;5056750;27;89333;-66
2022/10/16 07:16:06;;;;;;;1.67;1.15;;;;;;;;;;5026476;28;88818;-66
2022/10/16 07:18:32;;;;;;;2.70;1.08;;;;;;;;;;5046410;27;89469;-66
2022/10/16 07:21:08;;;;;;;2.35;1.25;;;;;;;;;;5048853;27;89317;-66
2022/10/16 07:23:35;;;;;;;2.80;1.67;;;;;;;;;;5025452;27;89009;-66
2022/10/16 07:26:01;;;;;;;2.00;1.10;;;;;;;;;;5033084;27;88876;-66
2022/10/16 07:28:28;;;;;;;6.70;1.23;;;;;;;;;;5036155;27;89028;-66
2022/10/16 07:30:54;;;;;;;3.38;1.05;;;;;;;;;;5052913;27;88022;-65
2022/10/16 07:33:21;;;;;;;2.65;1.08;;;;;;;;;;5043834;27;88256;-65
2022/10/16 07:35:51;;;;;;;1.90;1.02;;;;;;;;;;5039762;27;88953;-65
2022/10/16 07:38:18;;;;;;;1.58;0.98;;;;;;;;;;5045726;27;88737;-66
2022/10/16 07:40:44;;;;;;;3.85;0.90;;;;;;;;;;5028704;28;89728;-66
2022/10/16 07:43:11;;;;;;;5.97;1.38;;;;;;;;;;5036927;27;88044;-67
2022/10/16 07:45:38;;;;;;;1.00;0.77;;;;;;;;;;5055596;27;88758;-67
2022/10/16 07:48:04;;;;;;;12.40;1.23;;;;;;;;;;5023335;28;89188;-66
2022/10/16 07:50:31;;;;;;;6.82;1.20;;;;;;;;;;5024321;27;88082;-66
2022/10/16 07:52:57;;;;;;;7.68;1.20;;;;;;;;;;5054319;27;90227;-66
2022/10/16 07:55:23;;;;;;;3.20;1.00;;;;;;;;;;5057891;27;88638;-66
2022/10/16 07:57:49;;;;;;;5.75;1.25;;;;;;;;;;5060095;27;87597;-66
2022/10/16 08:00:15;;;;;;;6.95;1.35;;;;;;;;;;5060924;27;90290;-66
2022/10/16 08:02:42;;;;;;;6.68;1.15;;;;;;;;;;5057923;27;87995;-66
2022/10/16 08:05:08;;;;;;;4.88;1.17;;;;;;;;;;5059420;27;89767;-66
2022/10/16 08:07:34;;;;;;;1.95;1.17;;;;;;;;;;5059265;27;89050;-66
2022/10/16 08:10:01;;;;;;;7.88;1.08;;;;;;;;;;5038904;27;88006;-66
2022/10/16 08:12:27;;;;;;;2.92;1.15;;;;;;;;;;5040102;28;88884;-66
2022/10/16 08:14:53;;;;;;;3.75;1.20;;;;;;;;;;5043473;27;88426;-66
2022/10/16 08:17:19;;;;;;;6.18;1.00;;;;;;;;;;5043593;27;89895;-66
2022/10/16 08:19:47;;;;;;;3.13;1.00;;;;;;;;;;5039657;27;89029;-66
2022/10/16 08:22:13;;;;;;;3.42;1.27;;;;;;;;;;5047214;27;87691;-66
2022/10/16 08:24:44;;;;;;;1.58;1.10;;;;;;;;;;5040040;28;87987;-66
2022/10/16 08:27:11;;;;;;;2.42;1.25;;;;;;;;;;5039620;28;88020;-66
2022/10/16 08:29:38;;;;;;;2.03;1.10;;;;;;;;;;5044816;27;88873;-66
2022/10/16 08:32:04;;;;;;;1.48;0.77;;;;;;;;;;5054227;27;89514;-63
2022/10/16 08:34:31;;;;;;;5.18;0.98;;;;;;;;;;5051112;27;89001;-62
2022/10/16 08:36:57;;;;;;;5.25;1.27;;;;;;;;;;5039585;28;89642;-63
2022/10/16 08:39:23;;;;;;;3.78;0.80;;;;;;;;;;5038080;27;88998;-63
2022/10/16 08:41:52;;;;;;;6.22;1.17;;;;;;;;;;5051347;27;88897;-63
2022/10/16 08:44:39;;;;;;;2.20;1.05;;;;;;;;;;5060308;27;87942;-63
2022/10/16 08:47:08;;;;;;;2.47;1.08;;;;;;;;;;5041831;27;88755;-63
2022/10/16 08:49:35;;;;;;;1.90;0.75;;;;;;;;;;5042091;27;88232;-63
2022/10/16 08:52:01;;;;;;;6.55;1.02;;;;;;;;;;5048838;27;88934;-63
2022/10/16 08:54:30;;;;;;;2.50;0.98;;;;;;;;;;5058090;27;89830;-63
2022/10/16 08:56:57;;;;;;;9.55;1.35;;;;;;;;;;5060226;27;88239;-63
2022/10/16 08:59:23;;;;;;;3.30;1.13;;;;;;;;;;5031752;28;89180;-63
2022/10/16 09:01:51;;;;;;;5.03;1.30;;;;;;;;;;5050182;27;88564;-63
2022/10/16 09:04:20;;;;;;;1.98;1.05;;;;;;;;;;5050014;27;89905;-63
2022/10/16 09:06:48;;;;;;;7.55;0.98;;;;;;;;;;5056532;27;90151;-63
2022/10/16 09:09:29;;;;;;;6.80;1.17;;;;;;;;;;5079380;27;88114;-63
2022/10/16 09:12:00;;;;;;;1.45;0.68;;;;;;;;;;5061361;27;88727;-63
2022/10/16 09:14:26;;;;;;;;;;;;;;;;;;5046639;27;90006;-62
2022/10/16 09:16:55;;;;;;;5.07;1.00;;;;;;;;;;5049890;27;118264;-63
2022/10/16 09:19:30;;;;;;;7.33;1.00;;;;;;;;;;5052108;27;89121;-63
2022/10/16 09:21:59;;;;;;;9.77;1.30;;;;;;;;;;5058898;27;88296;-63
2022/10/16 09:24:25;;;;;;;1.75;0.93;;;;;;;;;;5045831;27;88985;-63
2022/10/16 09:26:54;;;;;;;1.63;0.88;;;;;;;;;;5038191;27;89002;-63
2022/10/16 09:29:21;;;;;;;3.38;0.88;;;;;;;;;;5042195;27;88206;-62
2022/10/16 09:31:47;;;;;;;4.68;1.05;;;;;;;;;;5036445;27;90375;-62
2022/10/16 09:34:23;;;;;;;7.47;1.38;;;;;;;;;;5044326;27;89582;-63
2022/10/16 09:36:49;;;;;;;7.88;1.13;;;;;;;;;;5051216;27;87505;-63
2022/10/16 09:39:15;;;;;;;3.60;0.80;;;;;;;;;;5048801;27;89508;-63
2022/10/16 09:41:43;;;;;;;2.47;0.90;;;;;;;;;;5052549;27;90031;-63
2022/10/16 09:44:21;;;;;;;3.17;1.00;;;;;;;;;;5047038;27;88748;-63
2022/10/16 09:46:47;;;;;;;11.00;1.50;;;;;;;;;;5057652;27;89785;-63
2022/10/16 09:49:24;;;;;;;3.15;0.95;;;;;;;;;;5044563;27;88582;-63
2022/10/16 09:51:50;;;;;;;3.10;0.95;;;;;;;;;;5024726;28;88771;-63
2022/10/16 09:54:18;;;;;;;5.43;0.93;;;;;;;;;;5045642;27;89314;-63
2022/10/16 09:56:48;;;;;;;18.02;1.45;;;;;;;;;;5047679;27;87914;-63
2022/10/16 09:59:15;;;;;;;;;;;;;;;;;;5041524;27;88774;-63
2022/10/16 10:01:42;;;;;;;1.95;1.15;;;;;;;;;;5045616;27;119551;-63
2022/10/16 10:04:09;;;;;;;2.50;1.13;;;;;;;;;;5061085;27;88031;-63
2022/10/16 10:06:40;;;;;;;3.90;0.82;;;;;;;;;;5033938;27;89059;-63
2022/10/16 10:09:25;;;;;;;2.03;0.98;;;;;;;;;;5032257;28;89171;-63
2022/10/16 10:11:55;;;;;;;3.10;0.98;;;;;;;;;;5038324;28;90643;-62
2022/10/16 10:14:23;;;;;;;3.97;1.33;;;;;;;;;;5036621;27;89584;-63
2022/10/16 10:16:51;;;;;;;2.95;1.10;;;;;;;;;;5049550;27;89123;-63
2022/10/16 10:19:21;;;;;;;2.42;1.02;;;;;;;;;;5043886;27;89609;-63
2022/10/16 10:21:48;;;;;;;3.35;1.17;;;;;;;;;;5042184;27;89327;-63
2022/10/16 10:24:15;;;;;;;2.97;0.90;;;;;;;;;;5060191;27;88276;-63
2022/10/16 10:26:44;;;;;;;1.42;0.80;;;;;;;;;;5046007;27;88316;-63
2022/10/16 10:29:19;;;;;;;2.35;1.10;;;;;;;;;;5038984;27;88134;-63
2022/10/16 10:31:53;;;;;;;2.72;0.98;;;;;;;;;;5037958;28;89021;-63
2022/10/16 10:34:19;;;;;;;2.63;0.90;;;;;;;;;;5055533;27;89736;-64
2022/10/16 10:36:50;;;;;;;3.30;1.05;;;;;;;;;;5027820;28;88216;-65
2022/10/16 10:39:22;;;;;;;4.22;1.25;;;;;;;;;;5036879;27;88583;-65
2022/10/16 10:42:07;;;;;;;5.95;1.13;;;;;;;;;;5019872;28;89107;-64
2022/10/16 10:44:51;;;;;;;6.38;1.10;;;;;;;;;;5042284;27;89400;-66
2022/10/16 10:47:35;;;;;;;3.83;1.38;;;;;;;;;;5049803;27;88774;-65
2022/10/16 10:50:16;;;;;;;6.80;1.20;;;;;;;;;;5052403;27;89477;-65
2022/10/16 10:52:52;;;;;;;5.03;1.10;;;;;;;;;;5058286;27;88791;-65
2022/10/16 10:55:25;;;;;;;9.10;1.52;;;;;;;;;;5053538;27;89064;-65
2022/10/16 10:57:51;;;;;;;5.32;1.48;;;;;;;;;;5056444;27;88001;-65
2022/10/16 11:00:23;;;;;;;5.50;1.00;;;;;;;;;;5055469;27;88759;-65
2022/10/16 11:02:59;;;;;;;6.65;1.30;;;;;;;;;;5054229;27;89345;-65
2022/10/16 11:05:25;;;;;;;7.22;1.42;;;;;;;;;;5053248;27;88620;-65
2022/10/16 11:08:03;;;;;;;7.20;1.67;;;;;;;;;;5037424;28;88755;-65
2022/10/16 11:10:41;;;;;;;4.28;1.40;;;;;;;;;;5022075;28;89919;-65
2022/10/16 11:13:14;;;;;;;6.10;1.33;;;;;;;;;;5038522;27;88755;-65
2022/10/16 11:15:42;;;;;;;3.92;1.33;;;;;;;;;;5049692;27;89379;-65
2022/10/16 11:18:16;;;;;;;5.57;1.58;;;;;;;;;;5050544;27;88066;-65
2022/10/16 11:21:04;;;;;;;4.85;1.63;;;;;;;;;;5060820;27;88022;-65
2022/10/16 11:23:33;;;;;;;6.22;1.40;;;;;;;;;;5061134;27;89027;-65
2022/10/16 11:26:01;;;;;;;4.93;1.60;;;;;;;;;;5045467;27;88789;-65
2022/10/16 11:28:28;;;;;;;3.78;1.27;;;;;;;;;;5040954;27;89488;-66
2022/10/16 11:30:59;;;;;;;6.80;1.30;;;;;;;;;;5050088;27;89216;-65
2022/10/16 11:33:31;;;;;;;3.83;1.42;;;;;;;;;;5057908;27;88151;-65
2022/10/16 11:35:57;;;;;;;5.55;1.70;;;;;;;;;;5042357;27;90820;-65
2022/10/16 11:38:23;;;;;;;4.88;1.20;;;;;;;;;;5043000;27;88085;-65
2022/10/16 11:40:52;;;;;;;3.83;1.33;;;;;;;;;;5053888;27;88581;-65
2022/10/16 11:43:24;;;;;;;4.05;1.30;;;;;;;;;;5040967;28;88273;-65
2022/10/16 11:45:58;;;;;;;4.13;1.40;;;;;;;;;;5029609;27;89049;-66
2022/10/16 11:48:24;;;;;;;6.63;1.63;;;;;;;;;;5045019;27;88917;-66
2022/10/16 11:50:55;;;;;;;6.75;1.30;;;;;;;;;;5039556;28;89777;-65
2022/10/16 11:53:22;;;;;;;2.60;1.20;;;;;;;;;;5041490;27;88066;-65
2022/10/16 11:55:48;;;;;;;7.22;1.55;;;;;;;;;;5056074;27;89178;-65
2022/10/16 11:58:30;;;;;;;5.18;1.30;;;;;;;;;;5041813;27;88085;-65
2022/10/16 12:01:05;;;;;;;9.07;1.50;;;;;;;;;;5042195;27;89801;-66
2022/10/16 12:03:52;;;;;;;3.15;1.27;;;;;;;;;;5037730;27;88986;-65
2022/10/16 12:06:33;;;;;;;6.88;1.33;;;;;;;;;;5015871;28;88459;-65
2022/10/16 12:09:00;;;;;;;7.63;1.48;;;;;;;;;;5040280;28;87410;-65
2022/10/16 12:11:26;;;;;;;2.67;1.15;;;;;;;;;;5039752;28;92180;-65
2022/10/16 12:14:13;;;;;;;6.65;1.85;;;;;;;;;;5046653;27;88428;-65
2022/10/16 12:16:52;;;;;;;6.30;1.40;;;;;;;;;;5037676;27;89825;-65
2022/10/16 12:19:20;;;;;;;6.32;1.35;;;;;;;;;;5049796;27;89010;-65
2022/10/16 12:21:46;;;;;;;7.78;1.88;;;;;;;;;;5056949;27;88909;-65
2022/10/16 12:24:27;;;;;;;6.78;1.50;;;;;;;;;;5059145;27;88575;-65
2022/10/16 12:26:54;;;;;;;4.75;1.33;;;;;;;;;;5055858;27;89720;-66
2022/10/16 12:29:41;;;;;;;4.85;1.60;;;;;;;;;;5045599;27;88769;-65
2022/10/16 12:32:27;;;;;;;3.65;1.35;;;;;;;;;;5021567;27;88088;-65
2022/10/16 12:35:26;;;;;;;4.57;1.20;;;;;;;;;;5060648;27;87940;-65
2022/10/16 12:37:53;;;;;;;4.10;1.33;;;;;;;;;;5054468;27;88067;-65
2022/10/16 12:40:30;;;;;;;3.13;1.30;;;;;;;;;;5055638;27;89035;-65
2022/10/16 12:42:56;;;;;;;4.63;1.50;;;;;;;;;;5058593;27;88811;-65
2022/10/16 12:45:31;;;;;;;5.03;1.65;;;;;;;;;;5057614;27;88903;-65
2022/10/16 12:47:57;;;;;;;4.82;1.40;;;;;;;;;;5057574;27;88186;-65
2022/10/16 12:50:24;;;;;;;5.47;1.55;;;;;;;;;;5058213;27;90115;-66
2022/10/16 12:52:50;;;;;;;6.45;1.50;;;;;;;;;;5042169;27;90381;-65
2022/10/16 12:55:18;;;;;;;4.80;1.25;;;;;;;;;;5056904;27;88045;-66
2022/10/16 12:57:56;;;;;;;5.07;1.15;;;;;;;;;;5052706;27;88659;-66
2022/10/16 13:00:26;;;;;;;4.22;1.27;;;;;;;;;;5060654;27;88320;-66
2022/10/16 13:03:19;;;;;;;4.47;1.13;;;;;;;;;;5060556;27;88329;-67
2022/10/16 13:05:45;;;;;;;3.88;1.40;;;;;;;;;;5047780;27;88927;-66
2022/10/16 13:08:30;;;;;;;6.07;1.35;;;;;;;;;;5038376;28;88735;-66
2022/10/16 13:10:59;;;;;;;7.40;1.45;;;;;;;;;;5038432;28;89497;-66
2022/10/16 13:13:58;;;;;;;4.55;1.25;;;;;;;;;;5030703;27;90385;-66
2022/10/16 13:16:24;;;;;;;4.32;1.40;;;;;;;;;;4990725;27;88137;-66
2022/10/16 13:19:08;;;;;;;7.28;1.35;;;;;;;;;;5059305;27;88727;-67
2022/10/16 13:21:53;;;;;;;4.60;1.70;;;;;;;;;;5058961;27;89004;-67
2022/10/16 13:24:19;;;;;;;4.47;1.58;;;;;;;;;;5040025;27;87945;-67
2022/10/16 13:26:52;;;;;;;3.88;1.40;;;;;;;;;;5043315;27;88744;-66
2022/10/16 13:29:19;;;;;;;5.55;1.60;;;;;;;;;;5045213;27;88109;-66
2022/10/16 13:31:45;;;;;;;5.47;1.45;;;;;;;;;;5029051;27;88287;-66
2022/10/16 13:34:16;;;;;;;5.18;1.83;;;;;;;;;;5043795;27;92862;-66
2022/10/16 13:36:44;;;;;;;7.47;1.45;;;;;;;;;;5041231;27;88388;-66
2022/10/16 13:39:27;;;;;;;7.57;1.80;;;;;;;;;;5040844;27;88726;-66
2022/10/16 13:42:04;;;;;;;4.97;1.63;;;;;;;;;;5052265;27;89023;-64
2022/10/16 13:44:36;;;;;;;3.05;1.27;;;;;;;;;;5038473;28;88127;-64
2022/10/16 13:47:03;;;;;;;5.35;1.80;;;;;;;;;;5055698;27;88753;-64
2022/10/16 13:49:29;;;;;;;4.10;1.42;;;;;;;;;;5056241;27;90206;-63
2022/10/16 13:51:56;;;;;;;4.68;1.52;;;;;;;;;;5021073;28;88766;-64
2022/10/16 13:54:23;;;;;;;5.97;1.60;;;;;;;;;;5038737;28;90057;-63
2022/10/16 13:56:49;;;;;;;5.68;1.60;;;;;;;;;;5038154;27;88188;-63
2022/10/16 13:59:35;;;;;;;7.20;2.17;;;;;;;;;;5050897;27;89297;-64
2022/10/16 14:02:06;;;;;;;6.95;1.40;;;;;;;;;;5041252;27;89351;-64
2022/10/16 14:04:32;;;;;;;7.82;1.65;;;;;;;;;;5040958;27;89746;-64
2022/10/16 14:06:59;;;;;;;9.57;1.27;;;;;;;;;;5033000;28;89058;-63
2022/10/16 14:09:29;;;;;;;8.18;1.70;;;;;;;;;;5037031;27;89002;-62
2022/10/16 14:12:03;;;;;;;7.63;1.50;;;;;;;;;;5048382;27;88513;-62
2022/10/16 14:14:34;;;;;;;4.72;1.30;;;;;;;;;;5049095;27;89040;-62
2022/10/16 14:17:01;;;;;;;3.58;1.33;;;;;;;;;;5057516;27;87877;-61
2022/10/16 14:19:29;;;;;;;9.13;1.55;;;;;;;;;;5058161;27;87998;-62
2022/10/16 14:21:55;;;;;;;7.40;1.50;;;;;;;;;;5051664;27;89170;-62
2022/10/16 14:24:34;;;;;;;7.05;1.40;;;;;;;;;;5052266;27;88903;-61
2022/10/16 14:27:01;;;;;;;5.60;1.40;;;;;;;;;;5039426;27;89575;-63
2022/10/16 14:29:28;;;;;;;7.57;1.63;;;;;;;;;;5036745;27;89371;-62
2022/10/16 14:31:58;;;;;;;9.85;1.50;;;;;;;;;;5049979;27;88028;-62
2022/10/16 14:34:24;;;;;;;;;;;;;;;;;;5024631;27;89681;-62
2022/10/16 14:36:51;;;;;;;5.90;1.70;;;;;;;;;;5055638;27;118393;-63
2022/10/16 14:39:19;;;;;;;8.27;2.03;;;;;;;;;;5057683;27;88788;-62
2022/10/16 14:41:46;;;;;;;5.00;1.35;;;;;;;;;;5052954;27;88395;-62
2022/10/16 14:44:13;;;;;;;4.93;1.55;;;;;;;;;;5045011;27;88172;-62
2022/10/16 14:46:41;;;;;;;3.97;1.27;;;;;;;;;;5046643;27;89698;-62
2022/10/16 14:49:10;;;;;;;4.53;1.85;;;;;;;;;;5042310;27;90146;-63
2022/10/16 14:51:44;;;;;;;6.38;1.42;;;;;;;;;;5044447;27;88959;-62
2022/10/16 14:54:11;;;;;;;5.70;1.40;;;;;;;;;;5022588;28;88925;-62
2022/10/16 14:56:49;;;;;;;8.55;1.70;;;;;;;;;;5038669;27;88287;-63